sensor_id;sensor_type;location;lat;lon;timestamp;pressure;altitude;pressure_sealevel;temperature;humidity
29197;BME280;62796;42.654;23.316;2023-03-19T00:00:44;95101.34;;;6.17;43.11
29197;BME280;62796;42.654;23.316;2023-03-19T00:03:09;95098.94;;;6.06;43.42
29197;BME280;62796;42.654;23.316;2023-03-19T00:05:35;95101.13;;;6.11;43.40
29197;BME280;62796;42.654;23.316;2023-03-19T00:08:00;95090.81;;;6.02;43.20
29197;BME280;62796;42.654;23.316;2023-03-19T00:10:26;95095.97;;;6.00;43.24
29197;BME280;62796;42.654;23.316;2023-03-19T00:12:51;95102.34;;;5.97;43.06
29197;BME280;62796;42.654;23.316;2023-03-19T00:15:17;95089.16;;;5.92;43.20
29197;BME280;62796;42.654;23.316;2023-03-19T00:17:42;95091.69;;;5.99;43.40
29197;BME280;62796;42.654;23.316;2023-03-19T00:20:10;95076.41;;;5.98;43.46
29197;BME280;62796;42.654;23.316;2023-03-19T00:22:36;95088.59;;;5.97;43.79
29197;BME280;62796;42.654;23.316;2023-03-19T00:25:02;95097.63;;;5.98;43.99
29197;BME280;62796;42.654;23.316;2023-03-19T00:27:27;95090.47;;;6.00;43.89
29197;BME280;62796;42.654;23.316;2023-03-19T00:29:53;95088.06;;;6.02;43.92
29197;BME280;62796;42.654;23.316;2023-03-19T00:32:18;95084.22;;;6.00;43.85
29197;BME280;62796;42.654;23.316;2023-03-19T00:34:44;95061.03;;;5.88;43.74
29197;BME280;62796;42.654;23.316;2023-03-19T00:37:10;95071.13;;;5.91;43.77
29197;BME280;62796;42.654;23.316;2023-03-19T00:39:36;95078.94;;;5.93;44.24
29197;BME280;62796;42.654;23.316;2023-03-19T00:42:01;95070.25;;;5.94;44.45
29197;BME280;62796;42.654;23.316;2023-03-19T00:44:27;95072.03;;;5.88;44.42
29197;BME280;62796;42.654;23.316;2023-03-19T00:46:52;95063.44;;;5.86;44.52
29197;BME280;62796;42.654;23.316;2023-03-19T00:49:17;95065.84;;;5.84;44.62
29197;BME280;62796;42.654;23.316;2023-03-19T00:51:43;95071.13;;;5.79;44.63
29197;BME280;62796;42.654;23.316;2023-03-19T00:54:11;95059.16;;;5.73;44.67
29197;BME280;62796;42.654;23.316;2023-03-19T00:56:36;95057.50;;;5.75;44.73
29197;BME280;62796;42.654;23.316;2023-03-19T00:59:02;95052.88;;;5.72;44.59
29197;BME280;62796;42.654;23.316;2023-03-19T01:01:27;95046.41;;;5.66;44.91
29197;BME280;62796;42.654;23.316;2023-03-19T01:03:53;95046.09;;;5.64;44.60
29197;BME280;62796;42.654;23.316;2023-03-19T01:06:18;95044.53;;;5.63;44.38
29197;BME280;62796;42.654;23.316;2023-03-19T01:08:44;95048.81;;;5.64;43.68
29197;BME280;62796;42.654;23.316;2023-03-19T01:11:12;95055.53;;;5.63;43.97
29197;BME280;62796;42.654;23.316;2023-03-19T01:13:38;95050.47;;;5.62;43.96
29197;BME280;62796;42.654;23.316;2023-03-19T01:16:04;95044.75;;;5.56;44.03
29197;BME280;62796;42.654;23.316;2023-03-19T01:18:30;95047.19;;;5.54;43.52
29197;BME280;62796;42.654;23.316;2023-03-19T01:20:56;95044.44;;;5.54;43.94
29197;BME280;62796;42.654;23.316;2023-03-19T01:23:22;95040.81;;;5.57;44.09
29197;BME280;62796;42.654;23.316;2023-03-19T01:25:47;95043.22;;;5.55;44.26
29197;BME280;62796;42.654;23.316;2023-03-19T01:28:12;95045.63;;;5.53;44.48
29197;BME280;62796;42.654;23.316;2023-03-19T01:30:38;95042.47;;;5.54;44.86
29197;BME280;62796;42.654;23.316;2023-03-19T01:33:05;95040.13;;;5.53;43.65
29197;BME280;62796;42.654;23.316;2023-03-19T01:35:31;95038.38;;;5.59;43.52
29197;BME280;62796;42.654;23.316;2023-03-19T01:37:56;95031.47;;;5.54;43.04
29197;BME280;62796;42.654;23.316;2023-03-19T01:40:22;95027.63;;;5.52;42.65
29197;BME280;62796;42.654;23.316;2023-03-19T01:45:34;95037.72;;;5.55;44.10
29197;BME280;62796;42.654;23.316;2023-03-19T01:48:00;95045.97;;;5.55;44.09
29197;BME280;62796;42.654;23.316;2023-03-19T01:50:30;95050.25;;;5.56;44.17
29197;BME280;62796;42.654;23.316;2023-03-19T01:52:59;95045.31;;;5.51;44.54
29197;BME280;62796;42.654;23.316;2023-03-19T01:55:25;95050.50;;;5.49;44.78
29197;BME280;62796;42.654;23.316;2023-03-19T01:57:52;95049.81;;;5.45;44.74
29197;BME280;62796;42.654;23.316;2023-03-19T02:00:17;95039.59;;;5.45;44.68
29197;BME280;62796;42.654;23.316;2023-03-19T02:02:46;95049.59;;;5.39;44.84
29197;BME280;62796;42.654;23.316;2023-03-19T02:05:14;95053.31;;;5.33;45.17
29197;BME280;62796;42.654;23.316;2023-03-19T02:07:46;95052.03;;;5.37;45.16
29197;BME280;62796;42.654;23.316;2023-03-19T02:10:14;95045.41;;;5.35;44.75
29197;BME280;62796;42.654;23.316;2023-03-19T02:12:41;95051.78;;;5.32;44.34
29197;BME280;62796;42.654;23.316;2023-03-19T02:15:06;95050.59;;;5.33;43.91
29197;BME280;62796;42.654;23.316;2023-03-19T02:17:32;95048.72;;;5.30;44.39
29197;BME280;62796;42.654;23.316;2023-03-19T02:28:14;95034.09;;;5.20;45.17
29197;BME280;62796;42.654;23.316;2023-03-19T02:30:42;95039.03;;;5.13;44.73
29197;BME280;62796;42.654;23.316;2023-03-19T02:33:16;95039.72;;;5.17;45.05
29197;BME280;62796;42.654;23.316;2023-03-19T02:35:43;95040.47;;;5.17;45.07
29197;BME280;62796;42.654;23.316;2023-03-19T02:38:11;95042.97;;;5.12;45.38
29197;BME280;62796;42.654;23.316;2023-03-19T02:40:49;95055.53;;;5.13;45.60
29197;BME280;62796;42.654;23.316;2023-03-19T02:43:16;95050.13;;;5.09;45.85
29197;BME280;62796;42.654;23.316;2023-03-19T02:45:42;95050.03;;;5.13;45.88
29197;BME280;62796;42.654;23.316;2023-03-19T02:48:07;95058.81;;;5.20;45.75
29197;BME280;62796;42.654;23.316;2023-03-19T02:50:33;95054.66;;;5.16;45.58
29197;BME280;62796;42.654;23.316;2023-03-19T02:52:58;95050.91;;;5.10;45.31
29197;BME280;62796;42.654;23.316;2023-03-19T02:55:23;95053.94;;;4.99;46.07
29197;BME280;62796;42.654;23.316;2023-03-19T02:57:49;95056.69;;;4.99;46.04
29197;BME280;62796;42.654;23.316;2023-03-19T03:00:15;95049.13;;;5.03;46.05
29197;BME280;62796;42.654;23.316;2023-03-19T03:02:45;95057.38;;;5.03;46.61
29197;BME280;62796;42.654;23.316;2023-03-19T03:05:10;95047.25;;;5.00;46.33
29197;BME280;62796;42.654;23.316;2023-03-19T03:07:36;95052.63;;;4.91;46.23
29197;BME280;62796;42.654;23.316;2023-03-19T03:10:02;95059.56;;;4.95;46.41
29197;BME280;62796;42.654;23.316;2023-03-19T03:12:28;95059.44;;;4.86;46.77
29197;BME280;62796;42.654;23.316;2023-03-19T03:14:53;95063.38;;;4.85;46.82
29197;BME280;62796;42.654;23.316;2023-03-19T03:17:19;95060.41;;;4.80;46.55
29197;BME280;62796;42.654;23.316;2023-03-19T03:19:44;95071.78;;;4.78;45.90
29197;BME280;62796;42.654;23.316;2023-03-19T03:22:09;95066.66;;;4.80;46.10
29197;BME280;62796;42.654;23.316;2023-03-19T03:24:35;95065.88;;;4.80;45.92
29197;BME280;62796;42.654;23.316;2023-03-19T03:27:01;95072.47;;;4.82;45.65
29197;BME280;62796;42.654;23.316;2023-03-19T03:29:26;95074.53;;;4.78;45.83
29197;BME280;62796;42.654;23.316;2023-03-19T03:31:52;95074.53;;;4.78;45.84
29197;BME280;62796;42.654;23.316;2023-03-19T03:34:17;95061.69;;;4.75;45.88
29197;BME280;62796;42.654;23.316;2023-03-19T03:36:43;95072.16;;;4.80;46.04
29197;BME280;62796;42.654;23.316;2023-03-19T03:39:10;95074.66;;;4.75;46.08
29197;BME280;62796;42.654;23.316;2023-03-19T03:41:35;95069.16;;;4.75;46.12
29197;BME280;62796;42.654;23.316;2023-03-19T03:44:01;95078.59;;;4.74;46.19
29197;BME280;62796;42.654;23.316;2023-03-19T03:46:27;95070.13;;;4.68;46.26
29197;BME280;62796;42.654;23.316;2023-03-19T03:48:52;95085.63;;;4.75;46.26
29197;BME280;62796;42.654;23.316;2023-03-19T03:51:18;95085.81;;;4.68;46.50
29197;BME280;62796;42.654;23.316;2023-03-19T03:53:43;95096.03;;;4.67;46.54
29197;BME280;62796;42.654;23.316;2023-03-19T03:56:09;95091.41;;;4.64;46.71
29197;BME280;62796;42.654;23.316;2023-03-19T03:58:34;95084.38;;;4.63;46.59
29197;BME280;62796;42.654;23.316;2023-03-19T04:01:00;95083.50;;;4.66;46.96
29197;BME280;62796;42.654;23.316;2023-03-19T04:03:25;95096.03;;;4.67;46.75
29197;BME280;62796;42.654;23.316;2023-03-19T04:05:51;95094.47;;;4.66;47.06
29197;BME280;62796;42.654;23.316;2023-03-19T04:08:16;95087.47;;;4.65;47.10
29197;BME280;62796;42.654;23.316;2023-03-19T04:10:42;95074.06;;;4.67;47.17
29197;BME280;62796;42.654;23.316;2023-03-19T04:13:08;95074.06;;;4.67;47.21
29197;BME280;62796;42.654;23.316;2023-03-19T04:15:34;95075.63;;;4.68;47.27
29197;BME280;62796;42.654;23.316;2023-03-19T04:17:59;95073.06;;;4.61;47.45
29197;BME280;62796;42.654;23.316;2023-03-19T04:20:25;95068.25;;;4.65;47.06
29197;BME280;62796;42.654;23.316;2023-03-19T04:22:50;95075.63;;;4.68;47.46
29197;BME280;62796;42.654;23.316;2023-03-19T04:25:16;95074.16;;;4.64;47.30
29197;BME280;62796;42.654;23.316;2023-03-19T04:27:42;95072.66;;;4.63;47.33
29197;BME280;62796;42.654;23.316;2023-03-19T04:30:08;95079.56;;;4.67;47.49
29197;BME280;62796;42.654;23.316;2023-03-19T04:32:35;95082.84;;;4.62;47.40
29197;BME280;62796;42.654;23.316;2023-03-19T04:35:01;95090.31;;;4.62;47.67
29197;BME280;62796;42.654;23.316;2023-03-19T04:37:27;95094.16;;;4.64;47.67
29197;BME280;62796;42.654;23.316;2023-03-19T04:39:52;95091.06;;;4.62;47.44
29197;BME280;62796;42.654;23.316;2023-03-19T04:42:19;95097.75;;;4.61;47.48
29197;BME280;62796;42.654;23.316;2023-03-19T04:44:44;95100.81;;;4.63;47.67
29197;BME280;62796;42.654;23.316;2023-03-19T04:47:10;95096.22;;;4.60;47.94
29197;BME280;62796;42.654;23.316;2023-03-19T04:49:35;95099.53;;;4.68;47.48
29197;BME280;62796;42.654;23.316;2023-03-19T04:52:01;95091.63;;;4.70;47.68
29197;BME280;62796;42.654;23.316;2023-03-19T04:54:26;95084.88;;;4.74;47.52
29197;BME280;62796;42.654;23.316;2023-03-19T04:56:52;95082.78;;;4.78;47.43
29197;BME280;62796;42.654;23.316;2023-03-19T04:59:18;95094.75;;;4.84;47.81
29197;BME280;62796;42.654;23.316;2023-03-19T05:01:43;95085.13;;;4.92;47.77
29197;BME280;62796;42.654;23.316;2023-03-19T05:04:09;95087.25;;;5.01;47.01
29197;BME280;62796;42.654;23.316;2023-03-19T05:06:35;95089.34;;;5.10;47.02
29197;BME280;62796;42.654;23.316;2023-03-19T05:09:03;95088.59;;;5.22;46.74
29197;BME280;62796;42.654;23.316;2023-03-19T05:11:29;95089.59;;;5.28;46.88
29197;BME280;62796;42.654;23.316;2023-03-19T05:13:55;95093.97;;;5.38;46.17
29197;BME280;62796;42.654;23.316;2023-03-19T05:16:20;95096.84;;;5.47;45.87
29197;BME280;62796;42.654;23.316;2023-03-19T05:18:45;95097.31;;;5.58;45.71
29197;BME280;62796;42.654;23.316;2023-03-19T05:21:12;95093.91;;;5.67;45.43
29197;BME280;62796;42.654;23.316;2023-03-19T05:23:38;95102.25;;;5.76;45.40
29197;BME280;62796;42.654;23.316;2023-03-19T05:26:04;95097.66;;;5.85;45.42
29197;BME280;62796;42.654;23.316;2023-03-19T05:28:31;95096.84;;;5.97;45.37
29197;BME280;62796;42.654;23.316;2023-03-19T05:30:56;95098.06;;;6.09;45.33
29197;BME280;62796;42.654;23.316;2023-03-19T05:33:22;95101.13;;;6.24;44.49
29197;BME280;62796;42.654;23.316;2023-03-19T05:35:47;95100.63;;;6.38;44.21
29197;BME280;62796;42.654;23.316;2023-03-19T05:38:13;95109.28;;;6.49;44.23
29197;BME280;62796;42.654;23.316;2023-03-19T05:40:38;95091.97;;;6.61;43.42
29197;BME280;62796;42.654;23.316;2023-03-19T05:43:06;95092.75;;;6.83;43.14
29197;BME280;62796;42.654;23.316;2023-03-19T05:45:32;95100.75;;;6.90;43.14
29197;BME280;62796;42.654;23.316;2023-03-19T05:47:57;95099.84;;;6.93;41.99
29197;BME280;62796;42.654;23.316;2023-03-19T05:50:23;95098.91;;;7.09;41.92
29197;BME280;62796;42.654;23.316;2023-03-19T05:52:48;95105.88;;;7.22;40.64
29197;BME280;62796;42.654;23.316;2023-03-19T05:55:13;95107.66;;;7.38;39.29
29197;BME280;62796;42.654;23.316;2023-03-19T05:57:39;95098.38;;;7.54;38.52
29197;BME280;62796;42.654;23.316;2023-03-19T06:00:06;95104.75;;;7.72;38.56
29197;BME280;62796;42.654;23.316;2023-03-19T06:02:32;95105.91;;;7.93;38.36
29197;BME280;62796;42.654;23.316;2023-03-19T06:04:58;95094.06;;;8.23;38.28
29197;BME280;62796;42.654;23.316;2023-03-19T06:07:23;95097.47;;;8.46;36.78
29197;BME280;62796;42.654;23.316;2023-03-19T06:09:49;95096.56;;;8.58;36.87
29197;BME280;62796;42.654;23.316;2023-03-19T06:12:14;95094.88;;;8.69;36.57
29197;BME280;62796;42.654;23.316;2023-03-19T06:14:40;95098.44;;;8.88;36.19
29197;BME280;62796;42.654;23.316;2023-03-19T06:17:06;95092.28;;;9.02;36.35
29197;BME280;62796;42.654;23.316;2023-03-19T06:19:31;95096.28;;;9.19;36.61
29197;BME280;62796;42.654;23.316;2023-03-19T06:21:57;95091.63;;;9.34;35.90
29197;BME280;62796;42.654;23.316;2023-03-19T06:24:22;95096.19;;;9.56;36.18
29197;BME280;62796;42.654;23.316;2023-03-19T06:26:47;95097.03;;;9.71;35.22
29197;BME280;62796;42.654;23.316;2023-03-19T06:29:13;95101.53;;;10.01;34.21
29197;BME280;62796;42.654;23.316;2023-03-19T06:31:38;95107.97;;;10.16;33.67
29197;BME280;62796;42.654;23.316;2023-03-19T06:34:06;95119.22;;;10.36;33.46
29197;BME280;62796;42.654;23.316;2023-03-19T06:36:31;95111.75;;;10.51;33.04
29197;BME280;62796;42.654;23.316;2023-03-19T06:38:57;95115.91;;;10.56;32.84
29197;BME280;62796;42.654;23.316;2023-03-19T06:41:22;95119.59;;;10.77;32.97
29197;BME280;62796;42.654;23.316;2023-03-19T06:43:49;95117.94;;;10.94;32.70
29197;BME280;62796;42.654;23.316;2023-03-19T06:46:15;95117.44;;;11.19;32.33
29197;BME280;62796;42.654;23.316;2023-03-19T06:48:40;95116.69;;;11.33;31.85
29197;BME280;62796;42.654;23.316;2023-03-19T06:51:06;95125.28;;;11.35;32.32
29197;BME280;62796;42.654;23.316;2023-03-19T06:53:32;95128.38;;;11.52;32.20
29197;BME280;62796;42.654;23.316;2023-03-19T06:55:57;95141.19;;;11.49;32.09
29197;BME280;62796;42.654;23.316;2023-03-19T06:58:23;95136.41;;;11.64;31.27
29197;BME280;62796;42.654;23.316;2023-03-19T07:00:48;95132.03;;;11.87;31.39
29197;BME280;62796;42.654;23.316;2023-03-19T07:03:13;95135.28;;;12.15;30.52
29197;BME280;62796;42.654;23.316;2023-03-19T07:05:39;95128.78;;;12.38;29.99
29197;BME280;62796;42.654;23.316;2023-03-19T07:08:04;95126.88;;;12.64;29.35
29197;BME280;62796;42.654;23.316;2023-03-19T07:10:38;95132.41;;;12.09;29.93
29197;BME280;62796;42.654;23.316;2023-03-19T07:13:04;95125.13;;;12.12;30.58
29197;BME280;62796;42.654;23.316;2023-03-19T07:15:30;95123.38;;;12.14;30.10
29197;BME280;62796;42.654;23.316;2023-03-19T07:17:55;95134.72;;;11.82;30.51
29197;BME280;62796;42.654;23.316;2023-03-19T07:20:21;95130.13;;;11.93;30.75
29197;BME280;62796;42.654;23.316;2023-03-19T07:22:49;95121.28;;;12.24;30.26
29197;BME280;62796;42.654;23.316;2023-03-19T07:25:15;95116.66;;;12.56;29.62
29197;BME280;62796;42.654;23.316;2023-03-19T07:27:40;95120.38;;;12.88;28.70
29197;BME280;62796;42.654;23.316;2023-03-19T07:30:06;95124.56;;;13.18;28.50
29197;BME280;62796;42.654;23.316;2023-03-19T07:32:32;95123.28;;;13.39;27.83
29197;BME280;62796;42.654;23.316;2023-03-19T07:34:57;95116.00;;;13.67;27.56
29197;BME280;62796;42.654;23.316;2023-03-19T07:37:23;95122.56;;;13.44;28.40
29197;BME280;62796;42.654;23.316;2023-03-19T07:39:48;95113.88;;;13.62;27.40
29197;BME280;62796;42.654;23.316;2023-03-19T07:42:13;95119.09;;;13.29;28.23
29197;BME280;62796;42.654;23.316;2023-03-19T07:44:39;95118.25;;;13.69;28.20
29197;BME280;62796;42.654;23.316;2023-03-19T07:47:05;95118.47;;;13.91;27.03
29197;BME280;62796;42.654;23.316;2023-03-19T07:49:30;95114.03;;;13.73;27.88
29197;BME280;62796;42.654;23.316;2023-03-19T07:51:55;95123.19;;;13.79;26.84
29197;BME280;62796;42.654;23.316;2023-03-19T07:54:21;95125.53;;;14.18;26.93
29197;BME280;62796;42.654;23.316;2023-03-19T07:56:47;95112.72;;;14.31;25.97
29197;BME280;62796;42.654;23.316;2023-03-19T07:59:13;95122.22;;;13.82;26.72
29197;BME280;62796;42.654;23.316;2023-03-19T08:01:38;95121.13;;;14.37;26.46
29197;BME280;62796;42.654;23.316;2023-03-19T08:04:04;95128.09;;;15.01;25.25
29197;BME280;62796;42.654;23.316;2023-03-19T08:06:29;95119.69;;;15.48;24.40
29197;BME280;62796;42.654;23.316;2023-03-19T08:08:54;95120.53;;;15.88;24.12
29197;BME280;62796;42.654;23.316;2023-03-19T08:11:20;95116.22;;;16.15;23.77
29197;BME280;62796;42.654;23.316;2023-03-19T08:13:46;95124.84;;;16.22;23.93
29197;BME280;62796;42.654;23.316;2023-03-19T08:16:11;95124.84;;;16.28;23.77
29197;BME280;62796;42.654;23.316;2023-03-19T08:18:37;95124.59;;;16.53;23.85
29197;BME280;62796;42.654;23.316;2023-03-19T08:21:03;95124.06;;;16.72;22.78
29197;BME280;62796;42.654;23.316;2023-03-19T08:23:29;95118.16;;;16.97;22.80
29197;BME280;62796;42.654;23.316;2023-03-19T08:25:54;95119.59;;;17.21;22.10
29197;BME280;62796;42.654;23.316;2023-03-19T08:28:21;95105.72;;;16.82;21.86
29197;BME280;62796;42.654;23.316;2023-03-19T08:30:47;95116.16;;;16.76;22.42
29197;BME280;62796;42.654;23.316;2023-03-19T08:33:12;95117.47;;;16.36;23.64
29197;BME280;62796;42.654;23.316;2023-03-19T08:35:38;95116.94;;;16.76;23.54
29197;BME280;62796;42.654;23.316;2023-03-19T08:38:03;95116.59;;;17.07;22.35
29197;BME280;62796;42.654;23.316;2023-03-19T08:40:29;95113.84;;;16.85;22.67
29197;BME280;62796;42.654;23.316;2023-03-19T08:42:54;95106.72;;;16.90;22.74
29197;BME280;62796;42.654;23.316;2023-03-19T08:45:20;95110.03;;;16.88;23.06
29197;BME280;62796;42.654;23.316;2023-03-19T08:47:46;95106.16;;;17.08;22.98
29197;BME280;62796;42.654;23.316;2023-03-19T08:50:12;95104.97;;;17.50;21.93
29197;BME280;62796;42.654;23.316;2023-03-19T08:52:37;95090.03;;;17.77;21.97
29197;BME280;62796;42.654;23.316;2023-03-19T08:55:03;95094.03;;;18.22;21.56
29197;BME280;62796;42.654;23.316;2023-03-19T08:57:30;95091.09;;;18.39;20.98
29197;BME280;62796;42.654;23.316;2023-03-19T08:59:56;95089.00;;;18.45;21.25
29197;BME280;62796;42.654;23.316;2023-03-19T09:02:21;95087.47;;;18.74;20.70
29197;BME280;62796;42.654;23.316;2023-03-19T09:04:47;95079.63;;;18.67;21.08
29197;BME280;62796;42.654;23.316;2023-03-19T09:07:12;95078.47;;;18.81;20.76
29197;BME280;62796;42.654;23.316;2023-03-19T09:09:40;95072.69;;;19.16;20.20
29197;BME280;62796;42.654;23.316;2023-03-19T09:12:08;95074.34;;;18.58;20.85
29197;BME280;62796;42.654;23.316;2023-03-19T09:14:35;95073.72;;;18.95;20.64
29197;BME280;62796;42.654;23.316;2023-03-19T09:17:01;95069.06;;;19.21;20.34
29197;BME280;62796;42.654;23.316;2023-03-19T09:19:27;95075.03;;;19.55;19.96
29197;BME280;62796;42.654;23.316;2023-03-19T09:21:52;95071.34;;;18.80;20.01
29197;BME280;62796;42.654;23.316;2023-03-19T09:24:18;95063.81;;;19.12;19.85
29197;BME280;62796;42.654;23.316;2023-03-19T09:26:44;95074.78;;;19.34;19.96
29197;BME280;62796;42.654;23.316;2023-03-19T09:29:10;95068.19;;;19.51;19.63
29197;BME280;62796;42.654;23.316;2023-03-19T09:31:36;95071.84;;;19.83;19.21
29197;BME280;62796;42.654;23.316;2023-03-19T09:34:02;95073.31;;;20.03;18.97
29197;BME280;62796;42.654;23.316;2023-03-19T09:36:27;95067.19;;;20.17;18.49
29197;BME280;62796;42.654;23.316;2023-03-19T09:38:53;95072.91;;;20.43;19.09
29197;BME280;62796;42.654;23.316;2023-03-19T09:41:28;95064.06;;;20.53;18.43
29197;BME280;62796;42.654;23.316;2023-03-19T09:44:00;95066.84;;;20.39;18.11
29197;BME280;62796;42.654;23.316;2023-03-19T09:46:33;95062.94;;;19.79;19.21
29197;BME280;62796;42.654;23.316;2023-03-19T09:49:20;95064.53;;;19.74;19.08
29197;BME280;62796;42.654;23.316;2023-03-19T09:52:12;95066.50;;;19.42;19.38
29197;BME280;62796;42.654;23.316;2023-03-19T09:54:50;95046.75;;;19.85;18.56
29197;BME280;62796;42.654;23.316;2023-03-19T09:57:19;95047.81;;;19.82;18.34
29197;BME280;62796;42.654;23.316;2023-03-19T09:59:45;95048.69;;;19.40;18.85
29197;BME280;62796;42.654;23.316;2023-03-19T10:10:54;95040.38;;;18.07;20.59
29197;BME280;62796;42.654;23.316;2023-03-19T10:13:32;95033.50;;;17.79;21.21
29197;BME280;62796;42.654;23.316;2023-03-19T10:16:03;95031.19;;;17.77;21.54
29197;BME280;62796;42.654;23.316;2023-03-19T10:18:33;95029.47;;;18.58;20.69
29197;BME280;62796;42.654;23.316;2023-03-19T10:23:36;95021.69;;;19.31;19.13
29197;BME280;62796;42.654;23.316;2023-03-19T10:26:07;95021.25;;;19.27;19.52
29197;BME280;62796;42.654;23.316;2023-03-19T10:28:35;95009.63;;;18.26;20.31
29197;BME280;62796;42.654;23.316;2023-03-19T10:31:03;95012.88;;;18.84;20.48
29197;BME280;62796;42.654;23.316;2023-03-19T10:33:44;95006.34;;;18.95;19.60
29197;BME280;62796;42.654;23.316;2023-03-19T10:36:15;95001.31;;;18.69;19.85
29197;BME280;62796;42.654;23.316;2023-03-19T10:38:44;94997.34;;;19.02;19.54
29197;BME280;62796;42.654;23.316;2023-03-19T10:43:55;94986.72;;;20.14;19.32
29197;BME280;62796;42.654;23.316;2023-03-19T10:46:23;94983.31;;;20.87;18.81
29197;BME280;62796;42.654;23.316;2023-03-19T10:48:48;94982.59;;;21.33;17.72
29197;BME280;62796;42.654;23.316;2023-03-19T10:51:15;94968.59;;;21.75;17.39
29197;BME280;62796;42.654;23.316;2023-03-19T10:53:43;94967.00;;;22.28;16.77
29197;BME280;62796;42.654;23.316;2023-03-19T10:58:55;94955.56;;;22.83;16.01
29197;BME280;62796;42.654;23.316;2023-03-19T11:01:26;94947.50;;;22.94;15.76
29197;BME280;62796;42.654;23.316;2023-03-19T11:03:56;94940.88;;;21.66;16.42
29197;BME280;62796;42.654;23.316;2023-03-19T11:06:35;94944.50;;;21.19;17.44
29197;BME280;62796;42.654;23.316;2023-03-19T11:11:34;94934.59;;;22.71;16.53
29197;BME280;62796;42.654;23.316;2023-03-19T11:14:26;94926.56;;;23.26;15.48
29197;BME280;62796;42.654;23.316;2023-03-19T11:17:15;94932.31;;;23.63;15.20
29197;BME280;62796;42.654;23.316;2023-03-19T11:19:48;94925.81;;;24.21;15.43
29197;BME280;62796;42.654;23.316;2023-03-19T11:22:36;94911.19;;;24.70;14.79
29197;BME280;62796;42.654;23.316;2023-03-19T11:25:15;94913.66;;;24.66;14.64
29197;BME280;62796;42.654;23.316;2023-03-19T11:27:44;94907.56;;;24.93;13.95
29197;BME280;62796;42.654;23.316;2023-03-19T11:30:21;94903.09;;;25.22;13.41
29197;BME280;62796;42.654;23.316;2023-03-19T11:33:24;94900.38;;;25.39;13.47
29197;BME280;62796;42.654;23.316;2023-03-19T11:38:29;94893.28;;;25.88;13.10
29197;BME280;62796;42.654;23.316;2023-03-19T11:43:43;94868.44;;;26.20;13.17
29197;BME280;62796;42.654;23.316;2023-03-19T11:46:23;94868.56;;;26.47;12.98
29197;BME280;62796;42.654;23.316;2023-03-19T11:49:21;94856.31;;;26.79;12.60
29197;BME280;62796;42.654;23.316;2023-03-19T11:57:07;94855.63;;;26.12;12.95
29197;BME280;62796;42.654;23.316;2023-03-19T12:03:07;94837.16;;;25.54;12.81
29197;BME280;62796;42.654;23.316;2023-03-19T12:10:52;94839.84;;;25.76;12.94
29197;BME280;62796;42.654;23.316;2023-03-19T12:19:32;94831.88;;;26.42;12.96
29197;BME280;62796;42.654;23.316;2023-03-19T12:27:21;94822.72;;;27.29;11.47
29197;BME280;62796;42.654;23.316;2023-03-19T12:29:59;94823.81;;;27.70;11.41
29197;BME280;62796;42.654;23.316;2023-03-19T12:34:56;94812.63;;;28.18;11.13
29197;BME280;62796;42.654;23.316;2023-03-19T12:37:54;94815.81;;;28.41;10.84
29197;BME280;62796;42.654;23.316;2023-03-19T12:40:42;94806.69;;;28.71;10.66
29197;BME280;62796;42.654;23.316;2023-03-19T12:43:22;94800.69;;;29.05;11.11
29197;BME280;62796;42.654;23.316;2023-03-19T12:49:18;94798.16;;;28.71;11.07
29197;BME280;62796;42.654;23.316;2023-03-19T12:51:50;94809.25;;;28.86;11.33
29197;BME280;62796;42.654;23.316;2023-03-19T12:54:31;94789.28;;;29.15;10.41
29197;BME280;62796;42.654;23.316;2023-03-19T12:57:18;94790.44;;;29.31;10.56
29197;BME280;62796;42.654;23.316;2023-03-19T13:00:01;94786.16;;;29.51;9.96
29197;BME280;62796;42.654;23.316;2023-03-19T13:03:10;94782.19;;;29.66;10.38
29197;BME280;62796;42.654;23.316;2023-03-19T13:05:44;94783.03;;;29.88;10.26
29197;BME280;62796;42.654;23.316;2023-03-19T13:10:38;94773.88;;;29.89;10.08
29197;BME280;62796;42.654;23.316;2023-03-19T13:21:36;94764.69;;;28.81;11.10
29197;BME280;62796;42.654;23.316;2023-03-19T13:26:42;94755.97;;;29.58;10.08
29197;BME280;62796;42.654;23.316;2023-03-19T13:29:26;94746.13;;;29.30;10.07
29197;BME280;62796;42.654;23.316;2023-03-19T13:32:03;94752.66;;;29.12;10.75
29197;BME280;62796;42.654;23.316;2023-03-19T13:34:34;94753.53;;;29.14;10.60
29197;BME280;62796;42.654;23.316;2023-03-19T13:37:12;94746.16;;;29.21;10.60
29197;BME280;62796;42.654;23.316;2023-03-19T13:39:40;94745.72;;;29.15;10.50
29197;BME280;62796;42.654;23.316;2023-03-19T13:42:37;94746.22;;;29.51;10.60
29197;BME280;62796;42.654;23.316;2023-03-19T13:45:35;94746.06;;;29.59;10.48
29197;BME280;62796;42.654;23.316;2023-03-19T13:48:31;94746.63;;;29.07;10.82
29197;BME280;62796;42.654;23.316;2023-03-19T13:51:22;94734.09;;;28.72;11.35
29197;BME280;62796;42.654;23.316;2023-03-19T13:53:52;94743.53;;;28.84;11.08
29197;BME280;62796;42.654;23.316;2023-03-19T13:56:18;94743.22;;;28.99;10.96
29197;BME280;62796;42.654;23.316;2023-03-19T13:59:22;94733.16;;;29.48;10.51
29197;BME280;62796;42.654;23.316;2023-03-19T14:01:49;94735.28;;;29.48;10.49
29197;BME280;62796;42.654;23.316;2023-03-19T14:06:52;94729.88;;;28.83;10.84
29197;BME280;62796;42.654;23.316;2023-03-19T14:12:32;94735.38;;;27.94;11.63
29197;BME280;62796;42.654;23.316;2023-03-19T14:15:14;94728.88;;;27.75;11.81
29197;BME280;62796;42.654;23.316;2023-03-19T14:17:44;94724.84;;;27.68;12.26
29197;BME280;62796;42.654;23.316;2023-03-19T14:23:22;94724.00;;;27.94;12.08
29197;BME280;62796;42.654;23.316;2023-03-19T14:33:51;94702.34;;;26.12;13.26
29197;BME280;62796;42.654;23.316;2023-03-19T14:36:19;94702.41;;;25.70;13.56
29197;BME280;62796;42.654;23.316;2023-03-19T14:39:08;94703.13;;;25.28;13.92